Terminal Aerodrome Forecast
Issued by NWS Omaha/Valley, NE

Home | Current Version | Previous Version | Text Only | Print | Product List | Glossary On
Versions: 1 2 3 4 5 6 7 8 9 10 11 12 13 14 15 16 17 18 19 20
000
FTUS43 KOAX 271735
TAFOFK
TAF
KOFK 271735Z 2718/2818 30007KT P6SM SCT015
      TEMPO 2718/2720 BKN015
     FM280100 10004KT P6SM SCT070 BKN110
     FM281000 05012KT P6SM VCSH OVC035
     FM281200 05013KT P6SM SHRA BKN025 OVC050
     FM281500 04015KT 2SM SHRA OVC008=

USA.gov is the U.S. government's official web portal to all federal, state and local government web resources and services.